KCHS/CHS METAR and TAF weather

Enter ICAO airport designator
Station Type Date Time Source
KCHS METAR 2018/09/21 22:56 UTC NOAA

KCHS 212256Z 09007KT 10SM FEW200 27/19 A3010 RMK AO2 SLP193 T02670189


Station Type Date Time Source
KCHS Decoded METAR 2018/09/21 22:56 UTC NOAA

CHARLESTON INT'L AIRPORT, SC, United States (KCHS) 32-54N 080-02W 13M
Sep 21, 2018 - 06:56 PM EDT / 2018.09.21 2256 UTC
Wind: from the E (090 degrees) at 8 MPH (7 KT):0
Visibility: 10 mile(s):0
Sky conditions: mostly clear
Temperature: 80.1 F (26.7 C)
Dew Point: 66.0 F (18.9 C)
Relative Humidity: 62%
Pressure (altimeter): 30.1 in. Hg (1019 hPa)
ob: KCHS 212256Z 09007KT 10SM FEW200 27/19 A3010 RMK AO2 SLP193 T02670189
cycle: 23

Station Type Date Time Source
KCHS TAF 2018/09/21 18:22 UTC NOAA

TAF KCHS 211720Z 2118/2218 10011G16KT P6SM SCT040
FM212000 11010KT P6SM FEW040
FM220100 VRB05KT P6SM FEW030


Example: see airport list